sensor_id;sensor_type;location;lat;lon;timestamp;P1;durP1;ratioP1;P2;durP2;ratioP2
20399;SDS011;10359;53.596;22.520;2022-09-09T00:02:02;4.37;;;2.57;;
20399;SDS011;10359;53.596;22.520;2022-09-09T00:04:42;3.20;;;2.30;;
20399;SDS011;10359;53.596;22.520;2022-09-09T00:07:21;5.53;;;2.83;;
20399;SDS011;10359;53.596;22.520;2022-09-09T00:09:57;4.77;;;2.27;;
20399;SDS011;10359;53.596;22.520;2022-09-09T00:12:34;4.87;;;2.13;;
20399;SDS011;10359;53.596;22.520;2022-09-09T00:15:23;2.50;;;2.30;;
20399;SDS011;10359;53.596;22.520;2022-09-09T00:18:05;3.23;;;2.17;;
20399;SDS011;10359;53.596;22.520;2022-09-09T00:20:43;5.20;;;2.20;;
20399;SDS011;10359;53.596;22.520;2022-09-09T00:23:19;3.90;;;2.60;;
20399;SDS011;10359;53.596;22.520;2022-09-09T00:25:57;5.67;;;2.30;;
20399;SDS011;10359;53.596;22.520;2022-09-09T00:28:32;4.47;;;2.40;;
20399;SDS011;10359;53.596;22.520;2022-09-09T00:31:09;4.70;;;2.20;;
20399;SDS011;10359;53.596;22.520;2022-09-09T00:33:44;2.30;;;2.10;;
20399;SDS011;10359;53.596;22.520;2022-09-09T00:36:15;2.77;;;2.20;;
20399;SDS011;10359;53.596;22.520;2022-09-09T00:38:47;4.90;;;2.20;;
20399;SDS011;10359;53.596;22.520;2022-09-09T00:41:22;4.80;;;2.20;;
20399;SDS011;10359;53.596;22.520;2022-09-09T00:44:00;5.80;;;2.20;;
20399;SDS011;10359;53.596;22.520;2022-09-09T00:46:41;3.40;;;1.97;;
20399;SDS011;10359;53.596;22.520;2022-09-09T00:49:24;4.70;;;2.23;;
20399;SDS011;10359;53.596;22.520;2022-09-09T00:52:03;3.83;;;2.10;;
20399;SDS011;10359;53.596;22.520;2022-09-09T00:54:44;5.20;;;2.33;;
20399;SDS011;10359;53.596;22.520;2022-09-09T00:57:25;3.63;;;2.13;;
20399;SDS011;10359;53.596;22.520;2022-09-09T00:59:57;2.93;;;2.60;;
20399;SDS011;10359;53.596;22.520;2022-09-09T01:02:32;4.27;;;2.30;;
20399;SDS011;10359;53.596;22.520;2022-09-09T01:05:10;2.73;;;2.27;;
20399;SDS011;10359;53.596;22.520;2022-09-09T01:07:44;2.60;;;1.90;;
20399;SDS011;10359;53.596;22.520;2022-09-09T01:10:24;3.90;;;2.60;;
20399;SDS011;10359;53.596;22.520;2022-09-09T01:13:08;2.93;;;2.10;;
20399;SDS011;10359;53.596;22.520;2022-09-09T01:15:43;5.87;;;1.90;;
20399;SDS011;10359;53.596;22.520;2022-09-09T01:18:15;3.97;;;2.03;;
20399;SDS011;10359;53.596;22.520;2022-09-09T01:20:48;2.87;;;2.27;;
20399;SDS011;10359;53.596;22.520;2022-09-09T01:23:28;2.97;;;2.30;;
20399;SDS011;10359;53.596;22.520;2022-09-09T01:26:18;4.37;;;2.07;;
20399;SDS011;10359;53.596;22.520;2022-09-09T01:28:49;3.37;;;2.10;;
20399;SDS011;10359;53.596;22.520;2022-09-09T01:31:21;4.07;;;2.23;;
20399;SDS011;10359;53.596;22.520;2022-09-09T01:33:54;4.47;;;2.20;;
20399;SDS011;10359;53.596;22.520;2022-09-09T01:36:25;3.40;;;2.20;;
20399;SDS011;10359;53.596;22.520;2022-09-09T01:39:00;3.57;;;1.70;;
20399;SDS011;10359;53.596;22.520;2022-09-09T01:41:31;3.60;;;1.77;;
20399;SDS011;10359;53.596;22.520;2022-09-09T01:44:00;3.73;;;1.90;;
20399;SDS011;10359;53.596;22.520;2022-09-09T01:46:29;1.97;;;1.87;;
20399;SDS011;10359;53.596;22.520;2022-09-09T01:48:58;3.47;;;2.20;;
20399;SDS011;10359;53.596;22.520;2022-09-09T01:51:30;4.30;;;2.13;;
20399;SDS011;10359;53.596;22.520;2022-09-09T01:53:59;5.10;;;2.17;;
20399;SDS011;10359;53.596;22.520;2022-09-09T01:56:34;3.10;;;2.00;;
20399;SDS011;10359;53.596;22.520;2022-09-09T01:59:18;3.93;;;1.90;;
20399;SDS011;10359;53.596;22.520;2022-09-09T02:02:08;2.97;;;1.80;;
20399;SDS011;10359;53.596;22.520;2022-09-09T02:04:40;2.70;;;2.10;;
20399;SDS011;10359;53.596;22.520;2022-09-09T02:07:15;2.77;;;2.10;;
20399;SDS011;10359;53.596;22.520;2022-09-09T02:09:57;2.17;;;1.80;;
20399;SDS011;10359;53.596;22.520;2022-09-09T02:12:31;3.50;;;2.10;;
20399;SDS011;10359;53.596;22.520;2022-09-09T02:15:01;5.50;;;2.13;;
20399;SDS011;10359;53.596;22.520;2022-09-09T02:17:35;5.37;;;2.03;;
20399;SDS011;10359;53.596;22.520;2022-09-09T02:20:06;4.93;;;1.97;;
20399;SDS011;10359;53.596;22.520;2022-09-09T02:22:38;1.80;;;1.70;;
20399;SDS011;10359;53.596;22.520;2022-09-09T02:25:10;4.20;;;2.10;;
20399;SDS011;10359;53.596;22.520;2022-09-09T02:27:44;1.90;;;1.80;;
20399;SDS011;10359;53.596;22.520;2022-09-09T02:30:15;2.10;;;1.90;;
20399;SDS011;10359;53.596;22.520;2022-09-09T02:32:45;2.30;;;1.70;;
20399;SDS011;10359;53.596;22.520;2022-09-09T02:35:17;2.23;;;2.03;;
20399;SDS011;10359;53.596;22.520;2022-09-09T02:37:48;3.63;;;1.80;;
20399;SDS011;10359;53.596;22.520;2022-09-09T02:40:20;2.87;;;1.97;;
20399;SDS011;10359;53.596;22.520;2022-09-09T02:42:51;4.43;;;1.60;;
20399;SDS011;10359;53.596;22.520;2022-09-09T02:45:22;4.30;;;2.10;;
20399;SDS011;10359;53.596;22.520;2022-09-09T02:47:56;2.53;;;1.80;;
20399;SDS011;10359;53.596;22.520;2022-09-09T02:50:33;2.17;;;1.70;;
20399;SDS011;10359;53.596;22.520;2022-09-09T02:53:06;3.40;;;1.90;;
20399;SDS011;10359;53.596;22.520;2022-09-09T02:55:39;2.57;;;1.73;;
20399;SDS011;10359;53.596;22.520;2022-09-09T02:58:17;3.20;;;2.00;;
20399;SDS011;10359;53.596;22.520;2022-09-09T03:00:50;2.33;;;2.10;;
20399;SDS011;10359;53.596;22.520;2022-09-09T03:03:20;2.63;;;2.10;;
20399;SDS011;10359;53.596;22.520;2022-09-09T03:05:49;2.23;;;1.90;;
20399;SDS011;10359;53.596;22.520;2022-09-09T03:08:18;3.43;;;2.00;;
20399;SDS011;10359;53.596;22.520;2022-09-09T03:10:47;5.10;;;2.70;;
20399;SDS011;10359;53.596;22.520;2022-09-09T03:13:17;2.50;;;2.30;;
20399;SDS011;10359;53.596;22.520;2022-09-09T03:15:47;4.13;;;2.60;;
20399;SDS011;10359;53.596;22.520;2022-09-09T03:18:16;2.87;;;2.07;;
20399;SDS011;10359;53.596;22.520;2022-09-09T03:20:48;6.70;;;2.97;;
20399;SDS011;10359;53.596;22.520;2022-09-09T03:23:17;3.17;;;2.03;;
20399;SDS011;10359;53.596;22.520;2022-09-09T03:25:47;3.40;;;1.97;;
20399;SDS011;10359;53.596;22.520;2022-09-09T03:28:18;3.23;;;2.00;;
20399;SDS011;10359;53.596;22.520;2022-09-09T03:30:47;2.77;;;2.00;;
20399;SDS011;10359;53.596;22.520;2022-09-09T03:33:16;2.60;;;2.23;;
20399;SDS011;10359;53.596;22.520;2022-09-09T03:35:45;3.27;;;2.20;;
20399;SDS011;10359;53.596;22.520;2022-09-09T03:38:16;3.40;;;2.13;;
20399;SDS011;10359;53.596;22.520;2022-09-09T03:40:48;3.33;;;2.00;;
20399;SDS011;10359;53.596;22.520;2022-09-09T03:43:21;5.53;;;2.20;;
20399;SDS011;10359;53.596;22.520;2022-09-09T03:45:51;6.87;;;2.47;;
20399;SDS011;10359;53.596;22.520;2022-09-09T03:48:23;2.73;;;2.40;;
20399;SDS011;10359;53.596;22.520;2022-09-09T03:51:01;4.20;;;3.30;;
20399;SDS011;10359;53.596;22.520;2022-09-09T03:53:30;5.37;;;3.70;;
20399;SDS011;10359;53.596;22.520;2022-09-09T03:56:00;3.87;;;3.30;;
20399;SDS011;10359;53.596;22.520;2022-09-09T03:58:31;3.87;;;2.90;;
20399;SDS011;10359;53.596;22.520;2022-09-09T04:01:01;4.27;;;2.53;;
20399;SDS011;10359;53.596;22.520;2022-09-09T04:03:32;3.60;;;2.70;;
20399;SDS011;10359;53.596;22.520;2022-09-09T04:06:01;7.10;;;2.83;;
20399;SDS011;10359;53.596;22.520;2022-09-09T04:08:31;2.63;;;2.43;;
20399;SDS011;10359;53.596;22.520;2022-09-09T04:11:00;3.20;;;2.33;;
20399;SDS011;10359;53.596;22.520;2022-09-09T04:13:36;3.33;;;2.40;;
20399;SDS011;10359;53.596;22.520;2022-09-09T04:16:07;4.10;;;2.37;;
20399;SDS011;10359;53.596;22.520;2022-09-09T04:18:38;4.97;;;2.30;;
20399;SDS011;10359;53.596;22.520;2022-09-09T04:21:08;4.13;;;2.10;;
20399;SDS011;10359;53.596;22.520;2022-09-09T04:23:38;4.93;;;2.40;;
20399;SDS011;10359;53.596;22.520;2022-09-09T04:26:08;2.87;;;2.33;;
20399;SDS011;10359;53.596;22.520;2022-09-09T04:28:38;3.07;;;2.40;;
20399;SDS011;10359;53.596;22.520;2022-09-09T04:31:08;5.00;;;2.27;;
20399;SDS011;10359;53.596;22.520;2022-09-09T04:33:38;3.83;;;2.27;;
20399;SDS011;10359;53.596;22.520;2022-09-09T04:36:07;4.20;;;2.30;;
20399;SDS011;10359;53.596;22.520;2022-09-09T04:38:36;3.17;;;2.37;;
20399;SDS011;10359;53.596;22.520;2022-09-09T04:41:05;2.47;;;2.27;;
20399;SDS011;10359;53.596;22.520;2022-09-09T04:43:39;2.73;;;2.10;;
20399;SDS011;10359;53.596;22.520;2022-09-09T04:46:08;3.33;;;2.03;;
20399;SDS011;10359;53.596;22.520;2022-09-09T04:48:37;2.97;;;2.10;;
20399;SDS011;10359;53.596;22.520;2022-09-09T04:51:08;3.17;;;2.10;;
20399;SDS011;10359;53.596;22.520;2022-09-09T04:53:39;6.17;;;2.30;;
20399;SDS011;10359;53.596;22.520;2022-09-09T04:56:09;2.63;;;1.87;;
20399;SDS011;10359;53.596;22.520;2022-09-09T04:58:42;4.27;;;2.20;;
20399;SDS011;10359;53.596;22.520;2022-09-09T05:01:13;3.83;;;2.27;;
20399;SDS011;10359;53.596;22.520;2022-09-09T05:03:44;4.33;;;2.23;;
20399;SDS011;10359;53.596;22.520;2022-09-09T05:06:13;2.33;;;2.03;;
20399;SDS011;10359;53.596;22.520;2022-09-09T05:08:44;2.93;;;2.63;;
20399;SDS011;10359;53.596;22.520;2022-09-09T05:11:14;5.90;;;2.67;;
20399;SDS011;10359;53.596;22.520;2022-09-09T05:13:45;2.83;;;2.23;;
20399;SDS011;10359;53.596;22.520;2022-09-09T05:16:14;3.53;;;1.70;;
20399;SDS011;10359;53.596;22.520;2022-09-09T05:18:44;3.30;;;1.87;;
20399;SDS011;10359;53.596;22.520;2022-09-09T05:21:14;2.20;;;2.00;;
20399;SDS011;10359;53.596;22.520;2022-09-09T05:23:44;3.53;;;1.97;;
20399;SDS011;10359;53.596;22.520;2022-09-09T05:26:14;6.47;;;2.00;;
20399;SDS011;10359;53.596;22.520;2022-09-09T05:28:46;4.20;;;1.90;;
20399;SDS011;10359;53.596;22.520;2022-09-09T05:31:16;2.57;;;1.83;;
20399;SDS011;10359;53.596;22.520;2022-09-09T05:33:46;2.07;;;1.90;;
20399;SDS011;10359;53.596;22.520;2022-09-09T05:36:16;4.47;;;2.07;;
20399;SDS011;10359;53.596;22.520;2022-09-09T05:38:46;4.80;;;2.20;;
20399;SDS011;10359;53.596;22.520;2022-09-09T05:41:16;2.40;;;1.97;;
20399;SDS011;10359;53.596;22.520;2022-09-09T05:43:48;6.20;;;2.17;;
20399;SDS011;10359;53.596;22.520;2022-09-09T05:46:17;3.23;;;2.30;;
20399;SDS011;10359;53.596;22.520;2022-09-09T05:48:48;2.17;;;1.93;;
20399;SDS011;10359;53.596;22.520;2022-09-09T05:51:18;2.20;;;1.87;;
20399;SDS011;10359;53.596;22.520;2022-09-09T05:53:48;3.87;;;1.90;;
20399;SDS011;10359;53.596;22.520;2022-09-09T05:56:19;2.63;;;2.20;;
20399;SDS011;10359;53.596;22.520;2022-09-09T05:58:53;4.70;;;2.23;;
20399;SDS011;10359;53.596;22.520;2022-09-09T06:01:24;2.80;;;2.17;;
20399;SDS011;10359;53.596;22.520;2022-09-09T06:03:54;4.47;;;2.27;;
20399;SDS011;10359;53.596;22.520;2022-09-09T06:06:24;5.57;;;2.20;;
20399;SDS011;10359;53.596;22.520;2022-09-09T06:08:54;2.40;;;2.13;;
20399;SDS011;10359;53.596;22.520;2022-09-09T06:11:25;2.80;;;2.33;;
20399;SDS011;10359;53.596;22.520;2022-09-09T06:13:59;4.07;;;2.40;;
20399;SDS011;10359;53.596;22.520;2022-09-09T06:16:28;4.50;;;2.37;;
20399;SDS011;10359;53.596;22.520;2022-09-09T06:18:59;4.03;;;2.20;;
20399;SDS011;10359;53.596;22.520;2022-09-09T06:21:29;6.17;;;2.67;;
20399;SDS011;10359;53.596;22.520;2022-09-09T06:24:00;2.70;;;2.50;;
20399;SDS011;10359;53.596;22.520;2022-09-09T06:26:30;4.87;;;2.50;;
20399;SDS011;10359;53.596;22.520;2022-09-09T06:29:02;4.07;;;2.50;;
20399;SDS011;10359;53.596;22.520;2022-09-09T06:31:32;3.73;;;2.47;;
20399;SDS011;10359;53.596;22.520;2022-09-09T06:34:04;5.60;;;2.80;;
20399;SDS011;10359;53.596;22.520;2022-09-09T06:36:34;2.67;;;2.47;;
20399;SDS011;10359;53.596;22.520;2022-09-09T06:39:05;4.40;;;2.10;;
20399;SDS011;10359;53.596;22.520;2022-09-09T06:41:40;3.00;;;2.70;;
20399;SDS011;10359;53.596;22.520;2022-09-09T06:44:11;4.70;;;2.40;;
20399;SDS011;10359;53.596;22.520;2022-09-09T06:46:41;5.00;;;2.37;;
20399;SDS011;10359;53.596;22.520;2022-09-09T06:49:14;4.93;;;2.30;;
20399;SDS011;10359;53.596;22.520;2022-09-09T06:51:43;4.33;;;2.67;;
20399;SDS011;10359;53.596;22.520;2022-09-09T06:54:13;8.27;;;2.93;;
20399;SDS011;10359;53.596;22.520;2022-09-09T06:56:42;4.73;;;2.70;;
20399;SDS011;10359;53.596;22.520;2022-09-09T06:59:14;6.63;;;2.50;;
20399;SDS011;10359;53.596;22.520;2022-09-09T07:01:43;4.37;;;2.53;;
20399;SDS011;10359;53.596;22.520;2022-09-09T07:04:18;5.43;;;2.57;;
20399;SDS011;10359;53.596;22.520;2022-09-09T07:06:47;5.43;;;2.73;;
20399;SDS011;10359;53.596;22.520;2022-09-09T07:09:16;3.47;;;2.63;;
20399;SDS011;10359;53.596;22.520;2022-09-09T07:11:46;8.30;;;3.33;;
20399;SDS011;10359;53.596;22.520;2022-09-09T07:14:18;9.70;;;5.60;;
20399;SDS011;10359;53.596;22.520;2022-09-09T07:16:48;13.60;;;7.90;;
20399;SDS011;10359;53.596;22.520;2022-09-09T07:19:19;11.70;;;7.97;;
20399;SDS011;10359;53.596;22.520;2022-09-09T07:21:48;16.90;;;15.17;;
20399;SDS011;10359;53.596;22.520;2022-09-09T07:24:17;21.57;;;13.70;;
20399;SDS011;10359;53.596;22.520;2022-09-09T07:26:46;19.40;;;14.80;;
20399;SDS011;10359;53.596;22.520;2022-09-09T07:29:15;14.27;;;11.27;;
20399;SDS011;10359;53.596;22.520;2022-09-09T07:31:48;17.40;;;14.27;;
20399;SDS011;10359;53.596;22.520;2022-09-09T07:34:16;23.57;;;16.03;;
20399;SDS011;10359;53.596;22.520;2022-09-09T07:36:45;11.40;;;7.83;;
20399;SDS011;10359;53.596;22.520;2022-09-09T07:39:15;13.67;;;8.73;;
20399;SDS011;10359;53.596;22.520;2022-09-09T07:41:45;9.63;;;6.83;;
20399;SDS011;10359;53.596;22.520;2022-09-09T07:44:16;16.50;;;11.23;;
20399;SDS011;10359;53.596;22.520;2022-09-09T07:46:49;15.10;;;9.80;;
20399;SDS011;10359;53.596;22.520;2022-09-09T07:49:18;16.67;;;10.50;;
20399;SDS011;10359;53.596;22.520;2022-09-09T07:51:55;15.03;;;10.07;;
20399;SDS011;10359;53.596;22.520;2022-09-09T07:54:24;16.13;;;9.90;;
20399;SDS011;10359;53.596;22.520;2022-09-09T07:57:00;15.73;;;9.13;;
20399;SDS011;10359;53.596;22.520;2022-09-09T07:59:31;15.17;;;8.77;;
20399;SDS011;10359;53.596;22.520;2022-09-09T08:02:01;18.63;;;9.80;;
20399;SDS011;10359;53.596;22.520;2022-09-09T08:04:30;29.13;;;15.17;;
20399;SDS011;10359;53.596;22.520;2022-09-09T08:07:00;18.53;;;11.37;;
20399;SDS011;10359;53.596;22.520;2022-09-09T08:09:29;28.53;;;15.90;;
20399;SDS011;10359;53.596;22.520;2022-09-09T08:12:00;17.43;;;9.63;;
20399;SDS011;10359;53.596;22.520;2022-09-09T08:14:29;16.27;;;8.73;;
20399;SDS011;10359;53.596;22.520;2022-09-09T08:16:58;15.57;;;8.90;;
20399;SDS011;10359;53.596;22.520;2022-09-09T08:19:29;10.67;;;6.90;;
20399;SDS011;10359;53.596;22.520;2022-09-09T08:22:00;11.20;;;6.93;;
20399;SDS011;10359;53.596;22.520;2022-09-09T08:24:29;15.97;;;9.23;;
20399;SDS011;10359;53.596;22.520;2022-09-09T08:26:58;11.03;;;5.50;;
20399;SDS011;10359;53.596;22.520;2022-09-09T08:29:28;10.53;;;6.93;;
20399;SDS011;10359;53.596;22.520;2022-09-09T08:31:57;11.10;;;6.50;;
20399;SDS011;10359;53.596;22.520;2022-09-09T08:34:26;12.43;;;7.57;;
20399;SDS011;10359;53.596;22.520;2022-09-09T08:36:58;13.60;;;7.73;;
20399;SDS011;10359;53.596;22.520;2022-09-09T08:39:26;11.87;;;7.40;;
20399;SDS011;10359;53.596;22.520;2022-09-09T08:42:02;12.43;;;5.10;;
20399;SDS011;10359;53.596;22.520;2022-09-09T08:45:10;14.73;;;8.60;;
20399;SDS011;10359;53.596;22.520;2022-09-09T08:47:52;14.27;;;9.87;;
20399;SDS011;10359;53.596;22.520;2022-09-09T08:50:32;17.37;;;8.20;;
20399;SDS011;10359;53.596;22.520;2022-09-09T08:53:05;13.33;;;7.73;;
20399;SDS011;10359;53.596;22.520;2022-09-09T08:55:41;13.97;;;7.70;;
20399;SDS011;10359;53.596;22.520;2022-09-09T08:58:14;12.10;;;5.50;;
20399;SDS011;10359;53.596;22.520;2022-09-09T09:00:50;14.67;;;7.67;;
20399;SDS011;10359;53.596;22.520;2022-09-09T09:03:31;17.93;;;7.30;;
20399;SDS011;10359;53.596;22.520;2022-09-09T09:06:13;21.30;;;8.63;;
20399;SDS011;10359;53.596;22.520;2022-09-09T09:08:57;9.83;;;5.37;;
20399;SDS011;10359;53.596;22.520;2022-09-09T09:11:34;10.37;;;5.53;;
20399;SDS011;10359;53.596;22.520;2022-09-09T09:14:08;11.00;;;6.13;;
20399;SDS011;10359;53.596;22.520;2022-09-09T09:16:42;10.93;;;5.33;;
20399;SDS011;10359;53.596;22.520;2022-09-09T09:19:17;8.77;;;5.77;;
20399;SDS011;10359;53.596;22.520;2022-09-09T09:21:51;8.17;;;5.80;;
20399;SDS011;10359;53.596;22.520;2022-09-09T09:24:25;9.87;;;5.57;;
20399;SDS011;10359;53.596;22.520;2022-09-09T09:26:59;8.57;;;5.50;;
20399;SDS011;10359;53.596;22.520;2022-09-09T09:29:37;8.03;;;5.33;;
20399;SDS011;10359;53.596;22.520;2022-09-09T09:32:28;11.20;;;6.03;;
20399;SDS011;10359;53.596;22.520;2022-09-09T09:35:06;7.83;;;5.20;;
20399;SDS011;10359;53.596;22.520;2022-09-09T09:37:41;9.50;;;6.00;;
20399;SDS011;10359;53.596;22.520;2022-09-09T09:40:31;10.50;;;6.17;;
20399;SDS011;10359;53.596;22.520;2022-09-09T09:43:01;8.97;;;6.43;;
20399;SDS011;10359;53.596;22.520;2022-09-09T09:45:35;15.27;;;7.87;;
20399;SDS011;10359;53.596;22.520;2022-09-09T09:48:31;10.07;;;6.20;;
20399;SDS011;10359;53.596;22.520;2022-09-09T09:51:01;10.67;;;5.83;;
20399;SDS011;10359;53.596;22.520;2022-09-09T09:53:36;11.47;;;6.30;;
20399;SDS011;10359;53.596;22.520;2022-09-09T09:56:07;10.53;;;6.67;;
20399;SDS011;10359;53.596;22.520;2022-09-09T09:58:38;10.00;;;6.10;;
20399;SDS011;10359;53.596;22.520;2022-09-09T10:01:19;12.17;;;7.00;;
20399;SDS011;10359;53.596;22.520;2022-09-09T10:03:52;10.10;;;7.00;;
20399;SDS011;10359;53.596;22.520;2022-09-09T10:06:32;13.37;;;7.47;;
20399;SDS011;10359;53.596;22.520;2022-09-09T10:09:17;14.10;;;9.10;;
20399;SDS011;10359;53.596;22.520;2022-09-09T10:11:54;13.70;;;9.20;;
20399;SDS011;10359;53.596;22.520;2022-09-09T10:14:30;14.87;;;8.77;;
20399;SDS011;10359;53.596;22.520;2022-09-09T10:17:07;12.83;;;8.80;;
20399;SDS011;10359;53.596;22.520;2022-09-09T10:19:47;12.77;;;8.23;;
20399;SDS011;10359;53.596;22.520;2022-09-09T10:22:26;14.77;;;9.33;;
20399;SDS011;10359;53.596;22.520;2022-09-09T10:25:19;10.83;;;8.23;;
20399;SDS011;10359;53.596;22.520;2022-09-09T10:28:05;8.90;;;6.50;;
20399;SDS011;10359;53.596;22.520;2022-09-09T10:30:54;9.40;;;7.37;;
20399;SDS011;10359;53.596;22.520;2022-09-09T10:33:35;9.00;;;7.50;;
20399;SDS011;10359;53.596;22.520;2022-09-09T10:36:21;12.13;;;7.50;;
20399;SDS011;10359;53.596;22.520;2022-09-09T10:38:52;10.60;;;7.83;;
20399;SDS011;10359;53.596;22.520;2022-09-09T10:41:48;9.87;;;7.27;;
20399;SDS011;10359;53.596;22.520;2022-09-09T10:44:27;11.57;;;8.07;;
20399;SDS011;10359;53.596;22.520;2022-09-09T10:47:15;10.17;;;7.60;;
20399;SDS011;10359;53.596;22.520;2022-09-09T10:50:02;10.27;;;7.37;;
20399;SDS011;10359;53.596;22.520;2022-09-09T10:52:41;10.20;;;7.63;;
20399;SDS011;10359;53.596;22.520;2022-09-09T10:55:20;12.77;;;8.40;;
20399;SDS011;10359;53.596;22.520;2022-09-09T10:57:57;15.87;;;10.73;;
20399;SDS011;10359;53.596;22.520;2022-09-09T11:00:30;19.60;;;11.90;;
20399;SDS011;10359;53.596;22.520;2022-09-09T11:03:09;11.17;;;8.60;;
20399;SDS011;10359;53.596;22.520;2022-09-09T11:05:47;12.70;;;7.77;;
20399;SDS011;10359;53.596;22.520;2022-09-09T11:08:20;10.90;;;5.63;;
20399;SDS011;10359;53.596;22.520;2022-09-09T11:10:51;9.80;;;7.80;;
20399;SDS011;10359;53.596;22.520;2022-09-09T11:13:29;10.30;;;7.27;;
20399;SDS011;10359;53.596;22.520;2022-09-09T11:16:04;10.97;;;7.50;;
20399;SDS011;10359;53.596;22.520;2022-09-09T11:18:43;9.33;;;6.67;;
20399;SDS011;10359;53.596;22.520;2022-09-09T11:21:15;11.73;;;7.73;;
20399;SDS011;10359;53.596;22.520;2022-09-09T11:23:50;15.70;;;8.40;;
20399;SDS011;10359;53.596;22.520;2022-09-09T11:26:27;10.40;;;7.43;;
20399;SDS011;10359;53.596;22.520;2022-09-09T11:29:08;11.53;;;8.27;;
20399;SDS011;10359;53.596;22.520;2022-09-09T11:32:04;11.83;;;8.13;;
20399;SDS011;10359;53.596;22.520;2022-09-09T11:34:50;9.80;;;7.63;;
20399;SDS011;10359;53.596;22.520;2022-09-09T11:40:30;11.03;;;7.80;;
20399;SDS011;10359;53.596;22.520;2022-09-09T11:43:02;11.10;;;7.50;;
20399;SDS011;10359;53.596;22.520;2022-09-09T11:45:34;12.87;;;8.07;;
20399;SDS011;10359;53.596;22.520;2022-09-09T11:48:04;12.23;;;8.37;;
20399;SDS011;10359;53.596;22.520;2022-09-09T11:50:58;11.77;;;8.47;;
20399;SDS011;10359;53.596;22.520;2022-09-09T11:53:31;13.30;;;8.43;;
20399;SDS011;10359;53.596;22.520;2022-09-09T11:56:10;12.87;;;8.60;;
20399;SDS011;10359;53.596;22.520;2022-09-09T11:58:42;12.90;;;7.83;;
20399;SDS011;10359;53.596;22.520;2022-09-09T12:01:30;13.57;;;8.73;;
20399;SDS011;10359;53.596;22.520;2022-09-09T12:04:17;13.90;;;8.80;;
20399;SDS011;10359;53.596;22.520;2022-09-09T12:07:04;12.67;;;8.27;;
20399;SDS011;10359;53.596;22.520;2022-09-09T12:09:51;15.30;;;9.60;;
20399;SDS011;10359;53.596;22.520;2022-09-09T12:12:26;13.87;;;9.23;;
20399;SDS011;10359;53.596;22.520;2022-09-09T12:14:58;9.80;;;6.20;;
20399;SDS011;10359;53.596;22.520;2022-09-09T12:17:49;10.93;;;8.00;;
20399;SDS011;10359;53.596;22.520;2022-09-09T12:20:21;13.37;;;8.87;;
20399;SDS011;10359;53.596;22.520;2022-09-09T12:22:55;13.80;;;8.53;;
20399;SDS011;10359;53.596;22.520;2022-09-09T12:25:39;14.60;;;10.07;;
20399;SDS011;10359;53.596;22.520;2022-09-09T12:28:17;13.83;;;9.37;;
20399;SDS011;10359;53.596;22.520;2022-09-09T12:30:49;11.87;;;9.00;;
20399;SDS011;10359;53.596;22.520;2022-09-09T12:33:33;12.13;;;8.00;;
20399;SDS011;10359;53.596;22.520;2022-09-09T12:36:03;11.57;;;8.23;;
20399;SDS011;10359;53.596;22.520;2022-09-09T12:38:36;11.57;;;8.30;;
20399;SDS011;10359;53.596;22.520;2022-09-09T12:41:15;11.60;;;8.73;;
20399;SDS011;10359;53.596;22.520;2022-09-09T12:43:48;12.37;;;8.37;;
20399;SDS011;10359;53.596;22.520;2022-09-09T12:49:26;9.60;;;8.07;;
20399;SDS011;10359;53.596;22.520;2022-09-09T12:52:01;10.37;;;7.63;;
20399;SDS011;10359;53.596;22.520;2022-09-09T12:54:33;11.17;;;8.93;;
20399;SDS011;10359;53.596;22.520;2022-09-09T12:57:04;9.70;;;7.53;;
20399;SDS011;10359;53.596;22.520;2022-09-09T12:59:37;14.30;;;8.33;;
20399;SDS011;10359;53.596;22.520;2022-09-09T13:02:16;11.73;;;8.07;;
20399;SDS011;10359;53.596;22.520;2022-09-09T13:04:49;10.87;;;7.87;;
20399;SDS011;10359;53.596;22.520;2022-09-09T13:07:18;10.63;;;7.80;;
20399;SDS011;10359;53.596;22.520;2022-09-09T13:09:48;12.97;;;8.27;;
20399;SDS011;10359;53.596;22.520;2022-09-09T13:12:18;12.73;;;7.90;;
20399;SDS011;10359;53.596;22.520;2022-09-09T13:15:22;10.50;;;5.90;;
20399;SDS011;10359;53.596;22.520;2022-09-09T13:17:55;12.57;;;7.80;;
20399;SDS011;10359;53.596;22.520;2022-09-09T13:20:28;10.73;;;7.73;;
20399;SDS011;10359;53.596;22.520;2022-09-09T13:22:57;12.57;;;7.77;;
20399;SDS011;10359;53.596;22.520;2022-09-09T13:25:27;10.73;;;8.33;;
20399;SDS011;10359;53.596;22.520;2022-09-09T13:27:58;9.30;;;7.27;;
20399;SDS011;10359;53.596;22.520;2022-09-09T13:30:29;12.00;;;8.13;;
20399;SDS011;10359;53.596;22.520;2022-09-09T13:33:05;10.63;;;8.20;;
20399;SDS011;10359;53.596;22.520;2022-09-09T13:35:49;14.00;;;8.90;;
20399;SDS011;10359;53.596;22.520;2022-09-09T13:38:20;10.93;;;7.90;;
20399;SDS011;10359;53.596;22.520;2022-09-09T13:40:54;13.73;;;8.53;;
20399;SDS011;10359;53.596;22.520;2022-09-09T13:43:25;10.27;;;7.70;;
20399;SDS011;10359;53.596;22.520;2022-09-09T13:45:56;12.50;;;8.77;;
20399;SDS011;10359;53.596;22.520;2022-09-09T13:48:28;10.73;;;8.97;;
20399;SDS011;10359;53.596;22.520;2022-09-09T13:51:01;12.27;;;9.00;;
20399;SDS011;10359;53.596;22.520;2022-09-09T13:53:32;12.13;;;8.77;;
20399;SDS011;10359;53.596;22.520;2022-09-09T13:56:02;10.70;;;8.07;;
20399;SDS011;10359;53.596;22.520;2022-09-09T13:58:31;10.10;;;8.00;;
20399;SDS011;10359;53.596;22.520;2022-09-09T14:01:00;13.03;;;8.43;;
20399;SDS011;10359;53.596;22.520;2022-09-09T14:03:29;13.07;;;7.70;;
20399;SDS011;10359;53.596;22.520;2022-09-09T14:05:59;13.53;;;8.10;;
20399;SDS011;10359;53.596;22.520;2022-09-09T14:08:28;10.70;;;8.03;;
20399;SDS011;10359;53.596;22.520;2022-09-09T14:11:04;13.23;;;9.20;;
20399;SDS011;10359;53.596;22.520;2022-09-09T14:13:32;13.70;;;8.93;;
20399;SDS011;10359;53.596;22.520;2022-09-09T14:16:04;14.03;;;8.60;;
20399;SDS011;10359;53.596;22.520;2022-09-09T14:18:33;13.40;;;9.00;;
20399;SDS011;10359;53.596;22.520;2022-09-09T14:21:15;18.60;;;10.47;;
20399;SDS011;10359;53.596;22.520;2022-09-09T14:23:59;10.60;;;7.93;;
20399;SDS011;10359;53.596;22.520;2022-09-09T14:26:28;13.03;;;7.67;;
20399;SDS011;10359;53.596;22.520;2022-09-09T14:28:57;15.77;;;9.70;;
20399;SDS011;10359;53.596;22.520;2022-09-09T14:31:27;12.93;;;8.73;;
20399;SDS011;10359;53.596;22.520;2022-09-09T14:33:56;10.17;;;8.10;;
20399;SDS011;10359;53.596;22.520;2022-09-09T14:36:27;13.00;;;8.90;;
20399;SDS011;10359;53.596;22.520;2022-09-09T14:38:56;11.67;;;9.30;;
20399;SDS011;10359;53.596;22.520;2022-09-09T14:41:26;13.63;;;8.50;;
20399;SDS011;10359;53.596;22.520;2022-09-09T14:43:56;14.00;;;9.50;;
20399;SDS011;10359;53.596;22.520;2022-09-09T14:46:26;11.73;;;9.10;;
20399;SDS011;10359;53.596;22.520;2022-09-09T14:48:55;10.63;;;7.70;;
20399;SDS011;10359;53.596;22.520;2022-09-09T14:51:24;13.27;;;8.87;;
20399;SDS011;10359;53.596;22.520;2022-09-09T14:53:58;12.57;;;8.77;;
20399;SDS011;10359;53.596;22.520;2022-09-09T14:56:29;12.63;;;8.80;;
20399;SDS011;10359;53.596;22.520;2022-09-09T14:59:01;13.70;;;8.87;;
20399;SDS011;10359;53.596;22.520;2022-09-09T15:01:30;12.60;;;9.00;;
20399;SDS011;10359;53.596;22.520;2022-09-09T15:04:01;12.57;;;9.53;;
20399;SDS011;10359;53.596;22.520;2022-09-09T15:06:34;13.30;;;9.70;;
20399;SDS011;10359;53.596;22.520;2022-09-09T15:09:05;12.80;;;9.60;;
20399;SDS011;10359;53.596;22.520;2022-09-09T15:11:35;15.70;;;9.97;;
20399;SDS011;10359;53.596;22.520;2022-09-09T15:14:05;14.50;;;9.97;;